Time;durP1;ratioP1;P1;durP2;ratioP2;P2;SDS_P1;SDS_P2;PMS_P1;PMS_P2;Temp;Humidity;BMP_temperature;BMP_pressure;BME280_temperature;BME280_humidity;BME280_pressure;Samples;Min_cycle;Max_cycle;Signal;HPM_P1;HPM_P2
2020/12/04 00:01:41;;;;;;;28.57;11.60;;;3.50;79.00;;;;;;5030441;28;20185;-73
2020/12/04 00:04:06;;;;;;;26.57;11.67;;;3.50;79.30;;;;;;5031477;28;20181;-75
2020/12/04 00:06:33;;;;;;;23.33;11.60;;;3.50;79.30;;;;;;5030311;28;20641;-76
2020/12/04 00:09:00;;;;;;;29.25;10.90;;;3.50;78.30;;;;;;5029410;28;20284;-74
2020/12/04 00:11:27;;;;;;;31.38;12.30;;;3.40;79.60;;;;;;5029970;28;20231;-75
2020/12/04 00:13:53;;;;;;;27.17;11.77;;;3.50;79.60;;;;;;5030786;28;20556;-76
2020/12/04 00:16:18;;;;;;;29.23;12.20;;;3.60;79.50;;;;;;5030217;28;20196;-76
2020/12/04 00:18:45;;;;;;;24.70;10.80;;;3.70;79.20;;;;;;5030147;28;20447;-76
2020/12/04 00:21:12;;;;;;;25.20;11.05;;;3.60;78.40;;;;;;5030365;28;20189;-75
2020/12/04 00:23:38;;;;;;;24.13;11.68;;;3.60;78.60;;;;;;5030238;28;20185;-75
2020/12/04 00:26:04;;;;;;;24.73;10.53;;;3.50;78.40;;;;;;5028756;28;20212;-76
2020/12/04 00:28:29;;;;;;;23.17;11.50;;;3.50;78.30;;;;;;5030450;28;20963;-76
2020/12/04 00:30:55;;;;;;;26.83;11.87;;;3.50;78.00;;;;;;5029684;28;20573;-76
2020/12/04 00:33:21;;;;;;;23.92;10.70;;;3.40;78.30;;;;;;5031006;28;20185;-74
2020/12/04 00:35:47;;;;;;;22.90;11.47;;;3.40;78.00;;;;;;5029768;28;20258;-75
2020/12/04 00:38:12;;;;;;;23.50;11.30;;;3.40;78.30;;;;;;5028722;28;20196;-75
2020/12/04 00:40:38;;;;;;;24.57;10.43;;;3.50;78.10;;;;;;5028947;28;20215;-75
2020/12/04 00:43:04;;;;;;;22.80;11.13;;;3.40;78.40;;;;;;5030082;28;20207;-75
2020/12/04 00:45:30;;;;;;;27.23;11.17;;;3.50;78.40;;;;;;5030266;28;20220;-76
2020/12/04 00:47:56;;;;;;;21.23;11.07;;;3.50;78.70;;;;;;5028201;28;20212;-74
2020/12/04 00:50:22;;;;;;;23.90;11.40;;;3.50;79.00;;;;;;5028843;28;20212;-77
2020/12/04 00:52:48;;;;;;;28.00;12.27;;;3.50;79.30;;;;;;5029114;28;20185;-75
2020/12/04 00:55:15;;;;;;;22.55;10.23;;;3.60;79.00;;;;;;5029280;28;20227;-74
2020/12/04 00:57:41;;;;;;;25.98;12.00;;;3.60;78.10;;;;;;5018627;28;20266;-75
2020/12/04 01:00:07;;;;;;;26.37;10.60;;;3.60;77.60;;;;;;5024957;28;20209;-76
2020/12/04 01:02:33;;;;;;;20.27;10.27;;;3.60;77.40;;;;;;5029541;28;20193;-76
2020/12/04 01:04:59;;;;;;;26.40;11.23;;;3.50;77.70;;;;;;5030338;28;20897;-77
2020/12/04 01:07:24;;;;;;;27.33;11.20;;;3.40;78.30;;;;;;5029140;28;20472;-76
2020/12/04 01:09:50;;;;;;;21.33;11.17;;;3.40;78.90;;;;;;5029370;28;20448;-76
2020/12/04 01:12:16;;;;;;;23.47;11.53;;;3.50;78.70;;;;;;5029706;28;20189;-76
2020/12/04 01:14:42;;;;;;;29.70;12.77;;;3.40;78.40;;;;;;5029361;28;20193;-75
2020/12/04 01:17:07;;;;;;;27.63;12.40;;;3.30;79.00;;;;;;5027886;28;20204;-76
2020/12/04 01:19:33;;;;;;;22.27;11.27;;;3.30;79.20;;;;;;5027746;28;20217;-76
2020/12/04 01:21:59;;;;;;;26.60;12.47;;;3.30;79.30;;;;;;5028719;28;20972;-76
2020/12/04 01:24:25;;;;;;;26.37;11.97;;;3.30;79.20;;;;;;5027723;28;20189;-76
2020/12/04 01:26:50;;;;;;;26.90;13.30;;;3.40;78.10;;;;;;5029761;28;20231;-74
2020/12/04 01:29:16;;;;;;;22.50;11.60;;;3.30;78.40;;;;;;5025384;28;20217;-76
2020/12/04 01:31:48;;;;;;;26.33;12.00;;;3.30;78.40;;;;;;5018425;28;20463;-75
2020/12/04 01:34:15;;;;;;;25.75;11.20;;;3.30;79.20;;;;;;5029052;28;20188;-77
2020/12/04 01:36:41;;;;;;;23.15;11.20;;;3.30;78.90;;;;;;5029912;28;20189;-75
2020/12/04 01:39:07;;;;;;;32.33;14.25;;;3.30;78.60;;;;;;5027992;28;20236;-75
2020/12/04 01:41:36;;;;;;;29.83;13.47;;;3.30;78.70;;;;;;5018266;28;20205;-74
2020/12/04 01:44:03;;;;;;;24.92;11.32;;;3.30;79.30;;;;;;5025910;28;20193;-73
2020/12/04 01:46:29;;;;;;;31.67;13.15;;;3.30;79.50;;;;;;5029283;28;20298;-76
2020/12/04 01:48:55;;;;;;;25.33;11.10;;;3.30;79.50;;;;;;5028889;28;20205;-74
2020/12/04 01:51:22;;;;;;;23.13;11.33;;;3.40;79.30;;;;;;5028106;28;20620;-75
2020/12/04 01:53:50;;;;;;;28.42;12.02;;;3.40;79.00;;;;;;5029395;28;20180;-77
2020/12/04 01:56:16;;;;;;;26.15;11.27;;;3.50;78.40;;;;;;5029516;28;20716;-74
2020/12/04 01:58:42;;;;;;;20.73;10.60;;;3.50;78.10;;;;;;5030402;28;20215;-76
2020/12/04 02:01:12;;;;;;;28.57;13.00;;;3.50;78.40;;;;;;5032759;28;20444;-74
2020/12/04 02:03:39;;;;;;;26.23;11.85;;;3.60;78.10;;;;;;5033847;28;20982;-76
2020/12/04 02:06:12;;;;;;;23.27;10.70;;;3.60;77.70;;;;;;5029370;28;20255;-75
2020/12/04 02:08:43;;;;;;;22.10;10.88;;;3.60;77.80;;;;;;5028542;28;20200;-76
2020/12/04 02:11:17;;;;;;;26.73;11.35;;;3.60;77.80;;;;;;5027999;28;20178;-73
2020/12/04 02:13:45;;;;;;;24.88;11.35;;;3.60;77.70;;;;;;5017538;28;20250;-76
2020/12/04 02:16:18;;;;;;;29.45;12.68;;;3.60;77.70;;;;;;5014674;28;20190;-77
2020/12/04 02:18:43;;;;;;;21.73;11.10;;;3.70;77.70;;;;;;5027303;28;20212;-74
2020/12/04 02:21:11;;;;;;;27.43;12.10;;;3.60;77.70;;;;;;5026858;28;20545;-74
2020/12/04 02:23:39;;;;;;;28.05;12.43;;;3.60;78.00;;;;;;5028283;28;20473;-76
2020/12/04 02:26:07;;;;;;;28.63;11.05;;;3.60;78.30;;;;;;5026664;28;20213;-76
2020/12/04 02:28:37;;;;;;;22.00;10.80;;;3.60;78.00;;;;;;5028464;28;20234;-77
2020/12/04 02:31:06;;;;;;;23.80;10.93;;;3.60;78.10;;;;;;5025987;28;20189;-77
2020/12/04 02:33:33;;;;;;;27.25;12.30;;;3.60;78.10;;;;;;5023189;28;20185;-76
2020/12/04 02:35:59;;;;;;;26.35;11.52;;;3.60;78.30;;;;;;5032020;28;20323;-76
2020/12/04 02:38:26;;;;;;;22.13;11.30;;;3.70;78.10;;;;;;5030417;28;20276;-75
2020/12/04 02:40:53;;;;;;;29.20;12.15;;;3.70;77.70;;;;;;5032052;28;20185;-74
2020/12/04 02:43:20;;;;;;;27.45;13.00;;;3.60;77.80;;;;;;5032634;28;20200;-74
2020/12/04 02:45:46;;;;;;;26.33;11.88;;;3.70;77.60;;;;;;5031817;28;20682;-74
2020/12/04 02:48:12;;;;;;;23.48;11.32;;;3.60;77.70;;;;;;5030965;28;20193;-76
2020/12/04 02:50:38;;;;;;;24.85;11.82;;;3.70;77.80;;;;;;5029791;28;20209;-75
2020/12/04 02:53:04;;;;;;;23.47;11.93;;;3.60;78.00;;;;;;5031808;28;20181;-75
2020/12/04 02:55:30;;;;;;;27.63;13.27;;;3.60;78.10;;;;;;5031178;28;20428;-74
2020/12/04 02:57:56;;;;;;;30.15;12.63;;;3.50;78.30;;;;;;5019867;28;20424;-74
2020/12/04 03:00:22;;;;;;;25.20;11.93;;;3.50;78.40;;;;;;5028644;28;20213;-75
2020/12/04 03:02:48;;;;;;;30.97;12.63;;;3.50;78.90;;;;;;5031726;28;20597;-75
2020/12/04 03:05:13;;;;;;;22.17;11.13;;;3.50;78.90;;;;;;5031205;28;20181;-76
2020/12/04 03:07:39;;;;;;;27.77;11.90;;;3.40;78.90;;;;;;5031657;28;20213;-74
2020/12/04 03:10:06;;;;;;;28.50;12.57;;;3.30;79.70;;;;;;5030877;28;20205;-75
2020/12/04 03:12:33;;;;;;;32.13;14.25;;;3.30;80.00;;;;;;5031863;28;20178;-77
2020/12/04 03:15:00;;;;;;;24.67;13.00;;;3.30;80.00;;;;;;5031206;28;20231;-75
2020/12/04 03:17:30;;;;;;;31.65;12.93;;;3.30;80.00;;;;;;5030116;28;20200;-75
2020/12/04 03:19:57;;;;;;;30.13;13.40;;;3.30;80.50;;;;;;5030486;28;20209;-75
2020/12/04 03:22:23;;;;;;;26.35;11.70;;;3.20;80.80;;;;;;5034912;28;20212;-75
2020/12/04 03:24:49;;;;;;;23.58;12.02;;;3.30;80.80;;;;;;5035081;28;20627;-75
2020/12/04 03:27:14;;;;;;;26.90;11.70;;;3.30;80.80;;;;;;5035583;28;20391;-74
2020/12/04 03:29:40;;;;;;;30.20;13.10;;;3.30;81.10;;;;;;5036233;28;20483;-75
2020/12/04 03:32:07;;;;;;;24.60;11.88;;;3.40;81.20;;;;;;5034303;28;20687;-76
2020/12/04 03:34:32;;;;;;;22.30;11.30;;;3.40;81.10;;;;;;5031305;28;20196;-74
2020/12/04 03:36:58;;;;;;;32.90;14.00;;;3.40;80.80;;;;;;5031016;28;20207;-75
2020/12/04 03:39:24;;;;;;;25.33;12.83;;;3.50;80.50;;;;;;5029704;28;20263;-75
2020/12/04 03:41:50;;;;;;;29.33;13.10;;;3.50;80.00;;;;;;5030903;28;20200;-76
2020/12/04 03:44:16;;;;;;;29.17;12.47;;;3.40;79.90;;;;;;5028656;28;20209;-75
2020/12/04 03:46:47;;;;;;;25.23;12.47;;;3.50;79.70;;;;;;5029598;28;20235;-75
2020/12/04 03:49:14;;;;;;;31.23;11.82;;;3.40;79.90;;;;;;5030168;28;21158;-77
2020/12/04 03:51:43;;;;;;;27.65;13.43;;;3.50;79.60;;;;;;5031413;28;20196;-75
2020/12/04 03:54:10;;;;;;;34.00;12.57;;;3.40;79.70;;;;;;5029461;28;20189;-75
2020/12/04 03:56:36;;;;;;;33.03;13.27;;;3.30;80.20;;;;;;5029227;28;20187;-73
2020/12/04 03:59:02;;;;;;;34.80;13.90;;;3.20;80.60;;;;;;5030923;28;20608;-74
2020/12/04 04:01:27;;;;;;;29.57;12.70;;;3.10;80.90;;;;;;5030486;28;20185;-75
2020/12/04 04:03:53;;;;;;;30.30;13.00;;;3.10;81.40;;;;;;5029313;28;20544;-75
2020/12/04 04:06:19;;;;;;;30.63;13.57;;;3.20;81.20;;;;;;5030467;28;20205;-74
2020/12/04 04:08:44;;;;;;;32.97;12.10;;;3.20;81.40;;;;;;5023316;28;20206;-76
2020/12/04 04:11:10;;;;;;;31.50;11.87;;;3.20;81.40;;;;;;5022556;28;20239;-75
2020/12/04 04:13:36;;;;;;;28.33;12.53;;;3.30;81.70;;;;;;5017216;28;20189;-74
2020/12/04 04:16:05;;;;;;;24.30;11.85;;;3.30;81.90;;;;;;5030245;28;20181;-76
2020/12/04 04:18:31;;;;;;;29.73;12.68;;;3.30;82.20;;;;;;5032364;28;20196;-78
2020/12/04 04:20:57;;;;;;;31.45;13.55;;;3.30;81.80;;;;;;5031816;28;20181;-78
2020/12/04 04:23:22;;;;;;;33.63;13.03;;;3.20;82.40;;;;;;5032244;28;20196;-76
2020/12/04 04:25:48;;;;;;;29.00;12.13;;;3.20;83.00;;;;;;5029552;28;20228;-76
2020/12/04 04:28:14;;;;;;;23.43;12.00;;;3.20;83.10;;;;;;5020881;28;20192;-75
2020/12/04 04:30:39;;;;;;;26.70;11.80;;;3.30;83.60;;;;;;5029039;28;20209;-77
2020/12/04 04:33:06;;;;;;;28.87;11.83;;;3.30;83.40;;;;;;5051886;28;20185;-76
2020/12/04 04:35:32;;;;;;;25.65;11.00;;;3.30;82.80;;;;;;5030390;28;20432;-76
2020/12/04 04:37:58;;;;;;;23.90;10.97;;;3.30;82.80;;;;;;5017678;28;20207;-76
2020/12/04 04:40:25;;;;;;;27.08;12.65;;;3.30;82.20;;;;;;5030378;28;20259;-76
2020/12/04 04:43:12;;;;;;;22.40;10.70;;;3.40;81.90;;;;;;5018460;28;20843;-76
2020/12/04 04:45:42;;;;;;;24.90;11.85;;;3.40;81.80;;;;;;5026945;28;20186;-75
2020/12/04 04:48:27;;;;;;;23.33;11.60;;;3.40;81.20;;;;;;5020824;28;20611;-74
2020/12/04 04:50:55;;;;;;;20.17;11.43;;;3.50;80.60;;;;;;5017130;28;20267;-75
2020/12/04 04:53:22;;;;;;;30.67;11.93;;;3.60;79.90;;;;;;5028203;28;20207;-76
2020/12/04 04:55:48;;;;;;;24.95;11.63;;;3.60;79.70;;;;;;5019154;28;20312;-77
2020/12/04 04:58:14;;;;;;;24.35;11.00;;;3.70;79.90;;;;;;5022041;28;20648;-75
2020/12/04 05:00:40;;;;;;;27.30;11.70;;;3.60;80.00;;;;;;5029926;28;20208;-76
2020/12/04 05:03:08;;;;;;;31.17;12.10;;;3.60;80.50;;;;;;5030721;28;20426;-75
2020/12/04 05:05:48;;;;;;;27.70;12.93;;;3.50;81.20;;;;;;5029442;28;20484;-76
2020/12/04 05:08:19;;;;;;;29.27;13.85;;;3.40;81.90;;;;;;5030028;28;20184;-74
2020/12/04 05:10:49;;;;;;;23.88;11.10;;;3.40;82.20;;;;;;5026734;28;20192;-75
2020/12/04 05:13:21;;;;;;;25.48;11.02;;;3.50;82.40;;;;;;5034642;28;20232;-76
2020/12/04 05:15:47;;;;;;;24.10;10.82;;;3.60;81.80;;;;;;5030730;28;20223;-77
2020/12/04 05:18:18;;;;;;;24.20;11.55;;;3.70;81.70;;;;;;5030664;28;20212;-77
2020/12/04 05:20:52;;;;;;;24.40;11.00;;;3.70;81.40;;;;;;5018562;28;20182;-77
2020/12/04 05:23:19;;;;;;;28.27;12.05;;;3.80;81.20;;;;;;5018315;28;20181;-74
2020/12/04 05:25:52;;;;;;;33.13;10.73;;;3.80;81.20;;;;;;5029272;28;20185;-75
2020/12/04 05:28:19;;;;;;;22.55;9.95;;;3.90;81.20;;;;;;5030495;28;20188;-76
2020/12/04 05:30:50;;;;;;;18.38;10.50;;;3.90;81.10;;;;;;5029213;28;20204;-76
2020/12/04 05:33:16;;;;;;;20.85;10.55;;;3.90;80.80;;;;;;5030345;28;20318;-76
2020/12/04 05:35:42;;;;;;;20.35;10.55;;;4.00;80.80;;;;;;5030226;28;20255;-75
2020/12/04 05:38:15;;;;;;;23.80;11.10;;;4.00;80.50;;;;;;5028020;28;20185;-77
2020/12/04 05:40:45;;;;;;;21.90;11.25;;;4.00;80.20;;;;;;5027796;28;20208;-76
2020/12/04 05:43:11;;;;;;;21.67;10.32;;;4.10;79.30;;;;;;5028839;28;20207;-75
2020/12/04 05:45:37;;;;;;;18.50;9.30;;;4.10;79.00;;;;;;5029411;28;20177;-74
2020/12/04 05:48:12;;;;;;;19.10;7.85;;;4.20;78.10;;;;;;5028339;28;20559;-76
2020/12/04 05:50:40;;;;;;;21.95;9.90;;;4.20;77.10;;;;;;5028009;28;20216;-76
2020/12/04 05:53:07;;;;;;;14.80;7.55;;;4.20;76.50;;;;;;5028350;28;20268;-76
2020/12/04 05:55:35;;;;;;;20.42;8.73;;;4.20;76.70;;;;;;5028291;28;20209;-76
2020/12/04 05:58:02;;;;;;;21.63;8.98;;;4.10;76.70;;;;;;5028728;28;20251;-75
2020/12/04 06:00:28;;;;;;;18.92;9.88;;;4.10;77.10;;;;;;5028434;28;20741;-75
2020/12/04 06:03:01;;;;;;;25.00;11.27;;;4.10;78.30;;;;;;5032282;28;20193;-75
2020/12/04 06:05:28;;;;;;;24.20;10.35;;;4.10;79.30;;;;;;5032204;28;20181;-78
2020/12/04 06:08:12;;;;;;;26.67;12.25;;;4.10;80.00;;;;;;5036218;28;20679;-76
2020/12/04 06:10:38;;;;;;;26.85;11.10;;;4.10;80.50;;;;;;5026943;28;20201;-75
2020/12/04 06:13:03;;;;;;;21.43;9.77;;;4.10;80.60;;;;;;5034577;28;21497;-77
2020/12/04 06:15:33;;;;;;;24.07;9.97;;;4.10;80.80;;;;;;5059268;28;20190;-76
2020/12/04 06:18:12;;;;;;;31.23;10.93;;;4.10;80.50;;;;;;5032687;28;20223;-75
2020/12/04 06:20:42;;;;;;;20.55;8.98;;;4.20;79.70;;;;;;5022427;28;20229;-74
2020/12/04 06:23:10;;;;;;;16.23;8.55;;;4.20;79.30;;;;;;5019388;28;20181;-74
2020/12/04 06:25:51;;;;;;;16.58;8.80;;;4.20;78.10;;;;;;5032314;28;20565;-75
2020/12/04 06:28:18;;;;;;;20.40;9.02;;;4.30;78.30;;;;;;5021715;28;20184;-75
2020/12/04 06:31:17;;;;;;;20.00;8.60;;;4.30;77.10;;;;;;5022383;28;20204;-74
2020/12/04 06:33:50;;;;;;;20.17;9.35;;;4.30;77.60;;;;;;4999018;28;20809;-74
2020/12/04 06:36:30;;;;;;;21.17;10.07;;;4.20;79.00;;;;;;4991216;28;20270;-77
2020/12/04 06:38:57;;;;;;;22.00;10.10;;;4.20;79.60;;;;;;4990529;28;20293;-73
2020/12/04 06:41:34;;;;;;;21.23;9.82;;;4.20;79.30;;;;;;4991651;28;20669;-75
2020/12/04 06:44:06;;;;;;;26.55;10.02;;;4.20;79.30;;;;;;4992658;28;20606;-75
2020/12/04 06:46:40;;;;;;;20.17;8.70;;;4.30;78.70;;;;;;4982635;28;20203;-75
2020/12/04 06:52:05;;;;;;;16.23;8.35;;;4.20;77.80;;;;;;4992400;28;20204;-75
2020/12/04 06:54:33;;;;;;;21.52;9.38;;;4.30;77.30;;;;;;4991818;28;20350;-75
2020/12/04 06:57:00;;;;;;;19.67;9.57;;;4.30;75.50;;;;;;4991647;28;20195;-77
2020/12/04 06:59:35;;;;;;;22.13;10.35;;;4.30;75.10;;;;;;4965583;28;20310;-75
2020/12/04 07:02:02;;;;;;;18.95;10.05;;;4.30;75.10;;;;;;4975997;28;20277;-75
2020/12/04 07:04:29;;;;;;;19.90;10.13;;;4.30;75.40;;;;;;4978866;28;20199;-77
2020/12/04 07:07:22;;;;;;;21.48;11.02;;;4.30;75.40;;;;;;4990177;28;20207;-76
2020/12/04 07:09:56;;;;;;;20.35;9.32;;;4.30;76.10;;;;;;5017669;28;20696;-77
2020/12/04 07:12:22;;;;;;;19.20;10.03;;;4.20;75.70;;;;;;5033048;28;20195;-76
2020/12/04 07:14:50;;;;;;;25.75;11.73;;;4.20;75.80;;;;;;5031924;28;20439;-76
2020/12/04 07:17:20;;;;;;;22.50;9.90;;;4.20;75.50;;;;;;5031381;28;20323;-75
2020/12/04 07:19:49;;;;;;;21.05;10.55;;;4.30;75.70;;;;;;5030978;28;20218;-76
2020/12/04 07:22:16;;;;;;;21.07;10.60;;;4.30;75.80;;;;;;5034370;28;20557;-77
2020/12/04 07:24:43;;;;;;;23.15;10.90;;;4.30;75.90;;;;;;5032441;28;20432;-77
2020/12/04 07:27:16;;;;;;;25.93;11.33;;;4.30;75.80;;;;;;5034461;28;20209;-77
2020/12/04 07:29:42;;;;;;;20.73;9.53;;;4.30;76.20;;;;;;5032351;28;20543;-77
2020/12/04 07:32:08;;;;;;;20.83;9.85;;;4.40;76.20;;;;;;5032593;28;20528;-77
2020/12/04 07:34:36;;;;;;;21.40;9.50;;;4.40;76.10;;;;;;5033324;28;20640;-75
2020/12/04 07:37:03;;;;;;;19.50;9.83;;;4.50;75.80;;;;;;5033171;28;20211;-78
2020/12/04 07:39:46;;;;;;;21.42;10.02;;;4.60;75.10;;;;;;5027121;28;20455;-77
2020/12/04 07:42:14;;;;;;;24.83;9.43;;;4.60;74.50;;;;;;5026949;28;20201;-76
2020/12/04 07:44:50;;;;;;;23.73;9.35;;;4.50;73.50;;;;;;5013785;28;20692;-76
2020/12/04 07:47:17;;;;;;;20.63;9.40;;;4.50;73.50;;;;;;5027181;28;20214;-76
2020/12/04 07:49:45;;;;;;;23.98;11.20;;;4.60;73.20;;;;;;5022182;28;20210;-77
2020/12/04 07:52:21;;;;;;;20.02;10.02;;;4.60;73.00;;;;;;5030743;28;20207;-76
2020/12/04 07:55:03;;;;;;;21.35;10.30;;;4.60;73.30;;;;;;5032971;28;20753;-78
2020/12/04 07:57:57;;;;;;;27.10;11.13;;;4.50;73.70;;;;;;5025761;28;20189;-76
2020/12/04 08:00:23;;;;;;;23.13;10.30;;;4.50;74.60;;;;;;5061689;28;20239;-75
2020/12/04 08:02:48;;;;;;;27.17;11.27;;;4.50;75.40;;;;;;5031163;28;20250;-76
2020/12/04 08:05:21;;;;;;;22.50;11.07;;;4.50;75.10;;;;;;5025651;28;21001;-75
2020/12/04 08:07:53;;;;;;;22.73;11.45;;;4.40;75.10;;;;;;5023539;28;20611;-77
2020/12/04 08:10:21;;;;;;;28.50;12.68;;;4.40;75.80;;;;;;5017982;28;20263;-75
2020/12/04 08:12:51;;;;;;;23.67;11.85;;;4.30;76.10;;;;;;5016166;28;20201;-77
2020/12/04 08:15:19;;;;;;;25.48;11.65;;;4.40;75.80;;;;;;5018296;28;20189;-75
2020/12/04 08:17:45;;;;;;;27.77;11.85;;;4.30;75.20;;;;;;5025249;28;20283;-77
2020/12/04 08:20:16;;;;;;;27.23;11.23;;;4.40;75.80;;;;;;5028769;28;20220;-72
2020/12/04 08:22:46;;;;;;;24.48;12.25;;;4.40;75.80;;;;;;5017026;28;20213;-72
2020/12/04 08:25:12;;;;;;;28.80;11.80;;;4.50;76.20;;;;;;5029907;28;20224;-73
2020/12/04 08:27:44;;;;;;;24.47;11.20;;;4.60;76.40;;;;;;5029989;28;20224;-74
2020/12/04 08:30:20;;;;;;;25.13;12.20;;;4.70;75.50;;;;;;5027900;28;20266;-73
2020/12/04 08:32:58;;;;;;;29.73;12.63;;;4.80;74.80;;;;;;5014905;28;20205;-73
2020/12/04 08:35:25;;;;;;;25.00;11.70;;;4.70;74.20;;;;;;5022021;28;20188;-74
2020/12/04 08:37:52;;;;;;;29.23;12.20;;;4.70;75.90;;;;;;5029677;28;20211;-72
2020/12/04 08:40:22;;;;;;;27.92;13.15;;;4.80;74.20;;;;;;5029286;28;20285;-72
2020/12/04 08:42:48;;;;;;;27.92;11.95;;;4.70;74.90;;;;;;5017537;28;20246;-76
2020/12/04 08:45:14;;;;;;;29.48;11.90;;;4.80;75.50;;;;;;5029063;28;20251;-76
2020/12/04 08:47:45;;;;;;;31.90;12.73;;;4.90;74.90;;;;;;5030312;28;20236;-75
2020/12/04 08:50:20;;;;;;;29.85;12.70;;;4.80;74.50;;;;;;5018756;28;20321;-75
2020/12/04 08:52:54;;;;;;;28.02;12.52;;;4.80;75.10;;;;;;5031128;28;20219;-74
2020/12/04 08:55:22;;;;;;;30.17;11.23;;;4.80;74.90;;;;;;5036300;28;20176;-75
2020/12/04 08:57:49;;;;;;;22.13;10.57;;;4.90;74.50;;;;;;5021552;28;20601;-75
2020/12/04 09:00:17;;;;;;;24.98;11.20;;;5.00;74.30;;;;;;5028864;28;20212;-75
2020/12/04 09:02:44;;;;;;;27.95;11.48;;;5.10;73.50;;;;;;5032689;28;20238;-76
2020/12/04 09:05:12;;;;;;;50.23;14.50;;;5.20;73.50;;;;;;5032731;28;20668;-75
2020/12/04 09:07:38;;;;;;;39.10;13.70;;;5.30;73.30;;;;;;5021164;28;20468;-76
2020/12/04 09:10:06;;;;;;;29.07;12.53;;;5.40;72.70;;;;;;5027841;28;20469;-75
2020/12/04 09:12:32;;;;;;;30.50;13.50;;;5.40;72.30;;;;;;5018681;28;20428;-76
2020/12/04 09:14:57;;;;;;;27.20;12.70;;;5.30;72.60;;;;;;5028927;28;20292;-75
2020/12/04 09:17:23;;;;;;;27.63;11.50;;;5.30;73.00;;;;;;5031586;28;20185;-74
2020/12/04 09:19:49;;;;;;;25.93;12.60;;;5.20;73.50;;;;;;5029799;28;20459;-76
2020/12/04 09:22:15;;;;;;;30.40;13.20;;;5.20;73.90;;;;;;5030300;28;20428;-76
2020/12/04 09:24:42;;;;;;;25.90;12.17;;;5.10;74.20;;;;;;5030583;28;20232;-74
2020/12/04 09:27:08;;;;;;;34.20;13.20;;;5.10;73.70;;;;;;5030518;28;20471;-76
2020/12/04 09:29:35;;;;;;;33.30;13.97;;;5.10;74.20;;;;;;5029842;28;20803;-75
2020/12/04 09:32:09;;;;;;;40.07;12.20;;;5.20;73.90;;;;;;5030004;28;20431;-75
2020/12/04 09:34:35;;;;;;;27.23;12.47;;;5.20;73.60;;;;;;5029462;28;20431;-75
2020/12/04 09:37:26;;;;;;;30.65;11.95;;;5.30;73.50;;;;;;5030162;28;20447;-75
2020/12/04 09:39:55;;;;;;;27.63;13.27;;;5.40;73.70;;;;;;5031744;28;20228;-76
2020/12/04 09:42:23;;;;;;;42.87;12.73;;;5.60;72.40;;;;;;5032508;28;20240;-76
2020/12/04 09:44:49;;;;;;;30.77;12.93;;;5.70;71.70;;;;;;5036318;28;20435;-75
2020/12/04 09:47:16;;;;;;;24.50;12.27;;;5.70;71.60;;;;;;5035310;28;20525;-76
2020/12/04 09:49:42;;;;;;;30.63;12.30;;;5.80;71.40;;;;;;5033091;28;20447;-76
2020/12/04 09:52:09;;;;;;;27.77;12.67;;;5.90;70.70;;;;;;5033445;28;20512;-76
2020/12/04 09:54:37;;;;;;;27.30;12.20;;;6.00;70.40;;;;;;5031870;28;20432;-75
2020/12/04 09:57:08;;;;;;;22.30;10.70;;;6.10;68.80;;;;;;5033258;28;20797;-74
2020/12/04 09:59:34;;;;;;;25.83;11.30;;;6.20;68.20;;;;;;5032649;28;20471;-75
2020/12/04 10:02:01;;;;;;;23.47;10.43;;;6.10;68.30;;;;;;5033233;28;20435;-76
2020/12/04 10:04:27;;;;;;;31.03;11.60;;;6.10;68.90;;;;;;5033085;28;20567;-75
2020/12/04 10:06:53;;;;;;;24.37;10.57;;;6.20;68.60;;;;;;5033584;28;20686;-76
2020/12/04 10:09:20;;;;;;;20.53;9.93;;;6.20;68.00;;;;;;5031488;28;20959;-76
2020/12/04 10:11:46;;;;;;;25.20;9.77;;;6.30;66.60;;;;;;5033507;28;20634;-76
2020/12/04 10:14:14;;;;;;;23.20;9.80;;;6.30;66.00;;;;;;5032678;28;20539;-74
2020/12/04 10:16:40;;;;;;;21.30;10.67;;;6.30;66.40;;;;;;5033708;28;20449;-76
2020/12/04 10:19:06;;;;;;;22.60;10.60;;;6.30;66.60;;;;;;5032331;28;20597;-73
2020/12/04 10:21:33;;;;;;;25.33;10.27;;;6.10;66.30;;;;;;5019096;28;20589;-74
2020/12/04 10:23:59;;;;;;;29.60;11.80;;;6.00;67.00;;;;;;5032256;28;20189;-76
2020/12/04 10:26:25;;;;;;;23.03;10.80;;;6.10;67.50;;;;;;5033762;28;20839;-73
2020/12/04 10:28:51;;;;;;;22.10;11.30;;;6.10;67.60;;;;;;5033725;28;20435;-74
2020/12/04 10:31:17;;;;;;;22.93;11.30;;;6.10;68.00;;;;;;5033856;28;20756;-75
2020/12/04 10:33:42;;;;;;;23.07;11.10;;;6.10;68.80;;;;;;5033768;28;20183;-73
2020/12/04 10:36:08;;;;;;;26.50;11.43;;;5.90;68.80;;;;;;5034097;28;20431;-75
2020/12/04 10:38:34;;;;;;;26.97;11.33;;;6.00;69.10;;;;;;5022313;28;20232;-73
2020/12/04 10:41:00;;;;;;;26.40;11.60;;;6.00;69.20;;;;;;5025477;28;20884;-74
2020/12/04 10:43:26;;;;;;;19.37;10.00;;;6.00;68.90;;;;;;5057186;28;20455;-75
2020/12/04 10:45:52;;;;;;;24.17;11.17;;;6.10;68.80;;;;;;5019973;28;20527;-75
2020/12/04 10:48:19;;;;;;;37.60;11.83;;;6.20;68.50;;;;;;5032141;28;20522;-75
2020/12/04 10:50:45;;;;;;;31.20;12.90;;;6.20;68.20;;;;;;5031862;28;20444;-74
2020/12/04 10:53:12;;;;;;;27.43;11.33;;;6.20;67.90;;;;;;5032556;28;20493;-75
2020/12/04 10:55:41;;;;;;;24.13;11.37;;;6.20;68.00;;;;;;5033422;28;20435;-76
2020/12/04 10:58:07;;;;;;;25.80;11.57;;;6.30;68.00;;;;;;5020279;28;20461;-74
2020/12/04 11:00:32;;;;;;;25.73;11.63;;;6.40;67.60;;;;;;5031491;28;20880;-74
2020/12/04 11:03:08;;;;;;;24.23;12.63;;;6.30;67.90;;;;;;5033323;28;20240;-76
2020/12/04 11:05:39;;;;;;;28.23;10.90;;;6.20;67.90;;;;;;5033005;28;20228;-74
2020/12/04 11:08:05;;;;;;;25.70;10.70;;;6.10;68.30;;;;;;5016387;28;20496;-74
2020/12/04 11:10:31;;;;;;;21.90;10.10;;;6.20;68.20;;;;;;5020864;28;20491;-75
2020/12/04 11:12:57;;;;;;;24.57;12.30;;;6.30;67.60;;;;;;5033286;28;20416;-75
2020/12/04 11:15:23;;;;;;;28.83;12.20;;;6.20;68.90;;;;;;5033343;28;20232;-77
2020/12/04 11:17:48;;;;;;;26.10;11.27;;;6.20;69.40;;;;;;5033310;28;21123;-73
2020/12/04 11:20:16;;;;;;;26.50;12.27;;;6.20;69.20;;;;;;5033818;28;20562;-74
2020/12/04 11:22:42;;;;;;;25.30;12.40;;;6.20;69.50;;;;;;5032188;28;20718;-76
2020/12/04 11:25:08;;;;;;;25.50;11.07;;;6.10;69.80;;;;;;5033321;28;20919;-74
2020/12/04 11:27:39;;;;;;;23.03;11.87;;;6.20;69.70;;;;;;5033363;28;20467;-73
2020/12/04 11:30:05;;;;;;;25.37;12.30;;;6.20;69.80;;;;;;5032989;28;20447;-74
2020/12/04 11:32:33;;;;;;;28.63;13.23;;;6.20;69.40;;;;;;5022829;28;20417;-74
2020/12/04 11:34:59;;;;;;;20.43;10.63;;;6.20;69.40;;;;;;5032684;28;20422;-76
2020/12/04 11:37:25;;;;;;;25.60;11.63;;;6.20;69.70;;;;;;5033158;28;20515;-74
2020/12/04 11:39:51;;;;;;;25.50;12.20;;;6.30;69.50;;;;;;5032972;28;20440;-75
2020/12/04 11:42:17;;;;;;;24.47;11.97;;;6.30;68.60;;;;;;5034500;28;20675;-74
2020/12/04 11:44:42;;;;;;;26.33;11.67;;;6.30;69.20;;;;;;5032933;28;20197;-76
2020/12/04 11:47:08;;;;;;;26.80;13.10;;;6.30;69.20;;;;;;5019357;28;20510;-75
2020/12/04 11:49:34;;;;;;;28.90;13.73;;;6.40;68.90;;;;;;5023688;28;20198;-76
2020/12/04 11:52:00;;;;;;;30.50;13.77;;;6.30;69.20;;;;;;5014264;28;20270;-76
2020/12/04 11:54:25;;;;;;;31.33;13.60;;;6.30;69.50;;;;;;5031221;28;20491;-75
2020/12/04 11:56:51;;;;;;;23.20;12.40;;;6.30;69.70;;;;;;5031388;28;20242;-75
2020/12/04 11:59:18;;;;;;;28.23;12.77;;;6.20;69.70;;;;;;5031030;28;20575;-74
2020/12/04 12:01:44;;;;;;;32.23;13.47;;;6.20;69.90;;;;;;5032164;28;20423;-74
2020/12/04 12:04:14;;;;;;;28.60;12.70;;;6.20;69.90;;;;;;5031554;28;20420;-74
2020/12/04 12:06:41;;;;;;;26.07;11.73;;;6.20;69.80;;;;;;5033039;28;20460;-74
2020/12/04 12:09:07;;;;;;;25.17;13.03;;;6.30;69.50;;;;;;5032161;28;20490;-75
2020/12/04 12:11:33;;;;;;;31.97;13.50;;;6.30;69.20;;;;;;5030366;28;21013;-75
2020/12/04 12:13:59;;;;;;;28.87;13.73;;;6.30;69.50;;;;;;5022818;28;20428;-77
2020/12/04 12:16:25;;;;;;;30.37;12.03;;;6.30;69.80;;;;;;5046656;28;20428;-75
2020/12/04 12:18:50;;;;;;;32.43;12.13;;;6.30;69.70;;;;;;5031631;28;20201;-74
2020/12/04 12:21:17;;;;;;;24.13;11.10;;;6.30;69.50;;;;;;5029430;28;20428;-74
2020/12/04 12:23:43;;;;;;;27.73;12.07;;;6.30;69.40;;;;;;5030186;28;20347;-76
2020/12/04 12:26:10;;;;;;;25.17;12.47;;;6.30;69.70;;;;;;5029065;28;21009;-77
2020/12/04 12:28:35;;;;;;;22.60;11.67;;;6.10;69.70;;;;;;5020395;28;20419;-75
2020/12/04 12:31:01;;;;;;;21.43;10.90;;;6.00;70.20;;;;;;5016962;28;21166;-75
2020/12/04 12:33:27;;;;;;;22.13;11.07;;;6.10;70.80;;;;;;5019577;28;20183;-76
2020/12/04 12:35:52;;;;;;;24.40;12.33;;;6.10;70.70;;;;;;5036542;28;20270;-74
2020/12/04 12:38:18;;;;;;;26.50;11.13;;;6.10;70.40;;;;;;5040218;28;20256;-75
2020/12/04 12:40:44;;;;;;;26.00;11.17;;;6.10;70.50;;;;;;5032326;28;20251;-76
2020/12/04 12:43:10;;;;;;;27.50;11.50;;;6.20;70.50;;;;;;5032225;28;20280;-74
2020/12/04 12:45:36;;;;;;;22.43;11.57;;;6.20;70.50;;;;;;5031314;28;20193;-76